createdAt,value
2018-10-16T00:00:15.743Z,98007.95
2018-10-16T00:02:45.210Z,98011.83
2018-10-16T00:05:14.086Z,98006.61
2018-10-16T00:07:42.927Z,98012.59
2018-10-16T00:10:11.668Z,98014.56
2018-10-16T00:12:40.511Z,98018.00
2018-10-16T00:15:10.556Z,98012.45
2018-10-16T00:17:39.526Z,98013.42
2018-10-16T00:20:08.399Z,98016.61
2018-10-16T00:22:37.202Z,98016.70
2018-10-16T00:25:07.550Z,98020.84
2018-10-16T00:27:36.264Z,98020.31
2018-10-16T00:30:05.205Z,98021.14
2018-10-16T00:32:33.981Z,98019.25
2018-10-16T00:35:02.642Z,98018.45
2018-10-16T00:37:31.474Z,98021.86
2018-10-16T00:40:00.449Z,98016.41
2018-10-16T00:42:29.310Z,98020.59
2018-10-16T00:44:58.327Z,98022.35
2018-10-16T00:47:27.108Z,98019.41
2018-10-16T00:49:55.875Z,98019.49
2018-10-16T00:52:24.678Z,98010.95
2018-10-16T00:54:53.583Z,98016.36
2018-10-16T00:57:22.356Z,98013.19
2018-10-16T00:59:51.150Z,98012.70
2018-10-16T01:02:20.036Z,98010.61
2018-10-16T01:04:48.797Z,98016.64
2018-10-16T01:07:17.551Z,98023.97
2018-10-16T01:09:46.312Z,98023.28
2018-10-16T01:12:15.247Z,98023.61
2018-10-16T01:14:44.357Z,98021.34
2018-10-16T01:17:13.230Z,98022.75
2018-10-16T01:19:41.996Z,98020.88
2018-10-16T01:22:10.902Z,98029.09
2018-10-16T01:24:39.779Z,98025.33
2018-10-16T01:27:08.681Z,98031.80
2018-10-16T01:29:37.516Z,98027.80
2018-10-16T01:32:06.448Z,98028.59
2018-10-16T01:34:35.188Z,98026.26
2018-10-16T01:37:03.953Z,98028.97
2018-10-16T01:39:32.711Z,98030.62
2018-10-16T01:42:01.552Z,98026.33
2018-10-16T01:44:30.291Z,98026.66
2018-10-16T01:46:59.103Z,98022.61
2018-10-16T01:49:27.770Z,98027.75
2018-10-16T01:51:56.547Z,98025.03
2018-10-16T01:54:25.511Z,98022.05
2018-10-16T01:56:54.367Z,98031.30
2018-10-16T01:59:23.231Z,98034.59
2018-10-16T02:01:53.006Z,98036.76
2018-10-16T02:04:21.840Z,98034.11
2018-10-16T02:06:50.905Z,98034.73
2018-10-16T02:09:19.682Z,98049.56
2018-10-16T02:11:48.538Z,98047.45
2018-10-16T02:14:17.267Z,98045.62
2018-10-16T02:16:46.066Z,98038.94
2018-10-16T02:19:15.039Z,98043.30
2018-10-16T02:21:43.895Z,98050.81
2018-10-16T02:24:12.611Z,98052.41
2018-10-16T02:26:41.509Z,98051.36
2018-10-16T02:29:10.606Z,98050.52
2018-10-16T02:31:39.310Z,98046.42
2018-10-16T02:34:08.171Z,98050.52
2018-10-16T02:36:36.998Z,98047.78
2018-10-16T02:39:08.282Z,98051.31
2018-10-16T02:41:37.339Z,98044.64
2018-10-16T02:44:06.810Z,98045.99
2018-10-16T02:46:35.534Z,98035.49
2018-10-16T02:49:04.971Z,98039.14
2018-10-16T02:51:33.822Z,98043.73
2018-10-16T02:54:02.574Z,98050.47
2018-10-16T02:56:31.306Z,98051.91
2018-10-16T02:59:00.062Z,98048.48
2018-10-16T03:01:29.021Z,98050.44
2018-10-16T03:03:57.806Z,98052.89
2018-10-16T03:06:26.531Z,98052.70
2018-10-16T03:08:55.227Z,98059.98
2018-10-16T03:11:24.031Z,98061.44
2018-10-16T03:13:53.090Z,98064.20
2018-10-16T03:16:21.803Z,98071.77
2018-10-16T03:18:50.571Z,98073.47
2018-10-16T03:21:19.338Z,98075.41
2018-10-16T03:23:48.094Z,98073.27
2018-10-16T03:26:16.878Z,98077.09
2018-10-16T03:28:45.630Z,98076.80
2018-10-16T03:31:14.702Z,98082.78
2018-10-16T03:33:43.397Z,98085.83
2018-10-16T03:36:12.251Z,98077.23
2018-10-16T03:38:41.002Z,98093.09
2018-10-16T03:41:10.030Z,98088.22
2018-10-16T03:43:39.786Z,98094.45
2018-10-16T03:46:08.935Z,98096.59
2018-10-16T03:48:37.758Z,98103.33
2018-10-16T03:51:06.503Z,98100.12
2018-10-16T03:53:35.251Z,98097.22
2018-10-16T03:56:04.024Z,98096.04
2018-10-16T03:58:32.729Z,98097.05
2018-10-16T04:01:01.607Z,98096.25
2018-10-16T04:03:30.314Z,98106.13
2018-10-16T04:05:59.186Z,98109.63
2018-10-16T04:08:28.054Z,98106.77
2018-10-16T04:10:56.918Z,98116.45
2018-10-16T04:13:25.666Z,98109.50
2018-10-16T04:15:54.539Z,98106.02
2018-10-16T04:18:23.241Z,98106.09
2018-10-16T04:20:52.163Z,98104.59
2018-10-16T04:23:20.807Z,98104.84
2018-10-16T04:25:49.555Z,98108.37
2018-10-16T04:28:18.218Z,98107.09
2018-10-16T04:30:47.011Z,98107.57
2018-10-16T04:33:15.710Z,98110.84
2018-10-16T04:35:44.477Z,98111.51
2018-10-16T04:38:13.164Z,98107.69
2018-10-16T04:40:42.147Z,98112.82
2018-10-16T04:43:10.886Z,98108.99
2018-10-16T04:45:39.871Z,98108.56
2018-10-16T04:48:08.590Z,98109.94
2018-10-16T04:50:37.507Z,98112.67
2018-10-16T04:53:07.246Z,98112.77
2018-10-16T04:55:36.050Z,98114.09
2018-10-16T04:58:04.812Z,98115.17
2018-10-16T05:00:33.534Z,98113.83
2018-10-16T05:03:02.474Z,98122.99
2018-10-16T05:05:31.715Z,98130.78
2018-10-16T05:08:00.994Z,98124.92
2018-10-16T05:10:29.916Z,98132.44
2018-10-16T05:12:58.768Z,98136.48
2018-10-16T05:15:30.976Z,98144.03
2018-10-16T05:20:39.614Z,98139.71
2018-10-16T05:23:08.648Z,98143.42
2018-10-16T05:25:37.649Z,98141.57
2018-10-16T05:28:06.355Z,98148.27
2018-10-16T05:30:35.250Z,98145.31
2018-10-16T05:33:04.043Z,98149.95
2018-10-16T05:35:32.767Z,98148.87
2018-10-16T05:38:01.631Z,98152.91
2018-10-16T05:40:30.535Z,98159.46
2018-10-16T05:42:59.423Z,98164.13
2018-10-16T05:45:29.920Z,98163.58
2018-10-16T05:47:58.930Z,98171.87
2018-10-16T05:50:27.736Z,98179.58
2018-10-16T05:52:56.995Z,98183.30
2018-10-16T05:55:25.993Z,98177.59
2018-10-16T05:57:54.810Z,98170.07
2018-10-16T06:00:35.770Z,98169.27
2018-10-16T06:03:04.897Z,98166.36
2018-10-16T06:05:33.775Z,98180.55
2018-10-16T06:08:02.582Z,98172.77
2018-10-16T06:10:31.321Z,98167.38
2018-10-16T06:13:00.010Z,98180.83
2018-10-16T06:15:29.026Z,98180.80
2018-10-16T06:17:57.799Z,98180.73
2018-10-16T06:20:26.728Z,98176.45
2018-10-16T06:22:55.515Z,98180.77
2018-10-16T06:25:24.387Z,98175.61
2018-10-16T06:27:53.293Z,98177.73
2018-10-16T06:30:22.329Z,98169.04
2018-10-16T06:32:51.002Z,98171.95
2018-10-16T06:35:19.765Z,98174.90
2018-10-16T06:37:48.562Z,98170.02
2018-10-16T06:40:17.305Z,98182.61
2018-10-16T06:42:46.074Z,98186.94
2018-10-16T06:45:14.971Z,98188.91
2018-10-16T06:47:43.963Z,98195.89
2018-10-16T06:50:12.804Z,98197.67
2018-10-16T06:52:41.578Z,98191.62
2018-10-16T06:55:10.485Z,98186.13
2018-10-16T06:57:39.173Z,98193.24
2018-10-16T07:00:08.651Z,98191.59
2018-10-16T07:02:37.495Z,98188.05
2018-10-16T07:05:07.807Z,98202.70
2018-10-16T07:07:36.671Z,98200.42
2018-10-16T07:10:06.768Z,98205.70
2018-10-16T07:12:35.606Z,98199.66
2018-10-16T07:15:04.516Z,98197.13
2018-10-16T07:17:33.375Z,98196.42
2018-10-16T07:20:02.160Z,98191.72
2018-10-16T07:22:30.984Z,98188.41
2018-10-16T07:24:59.731Z,98192.40
2018-10-16T07:27:28.593Z,98186.59
2018-10-16T07:29:57.452Z,98194.44
2018-10-16T07:32:26.504Z,98193.13
2018-10-16T07:34:55.312Z,98192.53
2018-10-16T07:37:24.047Z,98194.20
2018-10-16T07:39:52.816Z,98199.68
2018-10-16T07:42:21.732Z,98203.45
2018-10-16T07:44:50.646Z,98204.09
2018-10-16T07:47:20.081Z,98204.20
2018-10-16T07:49:48.969Z,98205.43
2018-10-16T07:52:17.806Z,98200.20
2018-10-16T07:54:46.579Z,98197.17
2018-10-16T07:57:15.521Z,98195.00
2018-10-16T07:59:44.218Z,98203.96
2018-10-16T08:02:13.064Z,98200.88
2018-10-16T08:04:41.890Z,98191.50
2018-10-16T08:07:10.716Z,98198.77
2018-10-16T08:09:39.455Z,98204.35
2018-10-16T08:12:10.223Z,98212.07
2018-10-16T08:14:39.871Z,98208.91
2018-10-16T08:17:08.970Z,98205.74
2018-10-16T08:19:37.742Z,98203.68
2018-10-16T08:22:06.515Z,98207.14
2018-10-16T08:24:35.234Z,98205.62
2018-10-16T08:27:04.018Z,98209.04
2018-10-16T08:29:32.718Z,98209.28
2018-10-16T08:32:01.554Z,98212.12
2018-10-16T08:34:30.337Z,98204.42
2018-10-16T08:36:59.316Z,98200.63
2018-10-16T08:39:33.957Z,98198.37
2018-10-16T08:45:14.348Z,98192.31
2018-10-16T08:47:54.244Z,98200.40
2018-10-16T08:50:35.386Z,98202.98
2018-10-16T08:53:04.252Z,98207.00
2018-10-16T08:55:33.482Z,98197.73
2018-10-16T08:58:02.957Z,98205.59
2018-10-16T09:00:31.771Z,98194.78
2018-10-16T09:03:00.518Z,98194.66
2018-10-16T09:05:29.957Z,98198.02
2018-10-16T09:07:58.726Z,98203.88
2018-10-16T09:10:28.138Z,98205.80
2018-10-16T09:12:56.930Z,98216.81
2018-10-16T09:15:25.944Z,98214.59
2018-10-16T09:17:54.793Z,98211.64
2018-10-16T09:20:23.710Z,98208.92
2018-10-16T09:22:52.553Z,98214.97
2018-10-16T09:25:21.338Z,98212.57
2018-10-16T09:27:50.110Z,98211.55
2018-10-16T09:30:18.948Z,98215.05
2018-10-16T09:32:47.775Z,98207.80
2018-10-16T09:35:16.560Z,98209.13
2018-10-16T09:37:45.384Z,98211.10
2018-10-16T09:40:14.223Z,98214.59
2018-10-16T09:42:43.059Z,98210.32
2018-10-16T09:45:12.138Z,98213.40
2018-10-16T09:47:40.871Z,98216.87
2018-10-16T09:50:10.617Z,98218.02
2018-10-16T09:52:39.488Z,98215.30
2018-10-16T09:55:09.964Z,98213.38
2018-10-16T09:57:38.870Z,98205.30
2018-10-16T10:00:14.134Z,98207.80
2018-10-16T10:02:43.227Z,98200.13
2018-10-16T10:05:12.181Z,98201.90
2018-10-16T10:07:41.053Z,98205.94
2018-10-16T10:10:10.091Z,98207.10
2018-10-16T10:12:39.144Z,98207.95
2018-10-16T10:15:08.147Z,98210.22
2018-10-16T10:17:37.315Z,98205.91
2018-10-16T10:20:07.008Z,98199.48
2018-10-16T10:22:35.833Z,98196.86
2018-10-16T10:25:05.093Z,98199.16
2018-10-16T10:27:33.811Z,98203.06
2018-10-16T10:30:03.035Z,98196.92
2018-10-16T10:32:32.198Z,98193.88
2018-10-16T10:35:01.122Z,98200.64
2018-10-16T10:37:29.887Z,98196.95
2018-10-16T10:39:58.693Z,98193.59
2018-10-16T10:42:27.494Z,98182.43
2018-10-16T10:44:56.484Z,98182.33
2018-10-16T10:47:25.390Z,98181.19
2018-10-16T10:49:54.214Z,98172.55
2018-10-16T10:52:22.949Z,98172.58
2018-10-16T10:54:51.739Z,98166.17
2018-10-16T10:57:20.521Z,98166.41
2018-10-16T10:59:49.280Z,98165.06
2018-10-16T11:02:18.129Z,98157.79
2018-10-16T11:04:46.994Z,98154.66
2018-10-16T11:07:15.782Z,98154.79
2018-10-16T11:09:44.642Z,98145.42
2018-10-16T11:12:13.303Z,98153.06
2018-10-16T11:14:42.199Z,98146.38
2018-10-16T11:17:10.890Z,98146.33
2018-10-16T11:19:39.670Z,98152.84
2018-10-16T11:22:08.454Z,98145.85
2018-10-16T11:24:37.174Z,98151.08
2018-10-16T11:27:06.002Z,98143.94
2018-10-16T11:29:34.738Z,98140.00
2018-10-16T11:32:03.562Z,98145.49
2018-10-16T11:34:32.423Z,98145.08
2018-10-16T11:37:01.324Z,98145.47
2018-10-16T11:39:33.119Z,98144.75
2018-10-16T11:42:02.076Z,98140.23
2018-10-16T11:44:32.826Z,98142.23
2018-10-16T11:47:17.350Z,98138.22
2018-10-16T11:49:47.130Z,98138.20
2018-10-16T11:52:21.919Z,98136.20
2018-10-16T11:54:50.691Z,98123.88
2018-10-16T11:57:19.572Z,98128.78
2018-10-16T11:59:48.426Z,98125.05
2018-10-16T12:02:17.349Z,98127.94
2018-10-16T12:04:46.209Z,98128.27
2018-10-16T12:07:15.309Z,98121.77
2018-10-16T12:09:44.296Z,98112.27
2018-10-16T12:12:13.058Z,98109.81
2018-10-16T12:14:41.958Z,98109.22
2018-10-16T12:17:23.027Z,98117.83
2018-10-16T12:19:58.369Z,98111.21
2018-10-16T12:22:27.062Z,98105.59
2018-10-16T12:24:55.923Z,98105.69
2018-10-16T12:27:25.234Z,98101.41
2018-10-16T12:29:54.019Z,98107.05
2018-10-16T12:32:22.788Z,98103.31
2018-10-16T12:34:51.422Z,98101.73
2018-10-16T12:37:20.202Z,98094.70
2018-10-16T12:39:49.081Z,98103.27
2018-10-16T12:42:17.835Z,98101.69
2018-10-16T12:44:46.792Z,98095.08
2018-10-16T12:47:15.725Z,98090.63
2018-10-16T12:49:44.454Z,98093.63
2018-10-16T12:52:13.296Z,98094.48
2018-10-16T12:54:41.994Z,98095.80
2018-10-16T12:57:10.735Z,98096.56
2018-10-16T12:59:39.560Z,98097.48
2018-10-16T13:02:08.324Z,98101.20
2018-10-16T13:04:37.168Z,98099.28
2018-10-16T13:07:13.219Z,98090.30
2018-10-16T13:09:42.009Z,98091.44
2018-10-16T13:12:11.031Z,98090.35
2018-10-16T13:14:39.887Z,98092.40
2018-10-16T13:17:08.720Z,98091.59
2018-10-16T13:19:37.573Z,98088.17
2018-10-16T13:22:06.461Z,98090.53
2018-10-16T13:24:35.356Z,98098.81
2018-10-16T13:27:04.138Z,98103.98
2018-10-16T13:29:33.254Z,98104.97
2018-10-16T13:32:01.972Z,98101.78
2018-10-16T13:34:30.766Z,98099.02
2018-10-16T13:36:59.626Z,98098.47
2018-10-16T13:39:28.473Z,98097.50
2018-10-16T13:41:57.215Z,98092.41
2018-10-16T13:44:26.183Z,98100.58
2018-10-16T13:46:55.000Z,98094.05
2018-10-16T13:49:23.760Z,98093.23
2018-10-16T13:51:52.590Z,98092.00
2018-10-16T13:54:21.385Z,98089.19
2018-10-16T13:56:50.325Z,98090.08
2018-10-16T13:59:19.170Z,98089.14
2018-10-16T14:01:47.887Z,98093.84
2018-10-16T14:04:16.727Z,98088.74
2018-10-16T14:06:45.467Z,98094.00
2018-10-16T14:09:14.205Z,98087.64
2018-10-16T14:11:43.255Z,98092.02
2018-10-16T14:14:12.069Z,98090.02
2018-10-16T14:16:40.861Z,98090.98
2018-10-16T14:19:09.571Z,98095.49
2018-10-16T14:21:38.471Z,98097.34
2018-10-16T14:24:07.258Z,98101.27
2018-10-16T14:26:36.332Z,98099.19
2018-10-16T14:29:05.774Z,98105.42
2018-10-16T14:31:34.469Z,98103.69
2018-10-16T14:34:03.281Z,98104.56
2018-10-16T14:36:32.136Z,98103.84
2018-10-16T14:39:00.950Z,98105.73
2018-10-16T14:41:30.002Z,98112.19
2018-10-16T14:43:58.852Z,98108.54
2018-10-16T14:46:27.565Z,98107.52
2018-10-16T14:48:56.386Z,98107.42
2018-10-16T14:51:25.135Z,98109.28
2018-10-16T14:53:53.982Z,98110.25
2018-10-16T14:56:22.783Z,98116.23
2018-10-16T14:58:51.610Z,98112.27
2018-10-16T15:01:20.299Z,98114.12
2018-10-16T15:03:49.260Z,98125.19
2018-10-16T15:06:17.911Z,98116.97
2018-10-16T15:08:46.707Z,98119.34
2018-10-16T15:11:15.593Z,98120.13
2018-10-16T15:13:44.432Z,98116.59
2018-10-16T15:16:13.250Z,98115.80
2018-10-16T15:18:41.958Z,98109.73
2018-10-16T15:21:10.720Z,98120.54
2018-10-16T15:23:39.695Z,98113.09
2018-10-16T15:26:08.648Z,98121.44
2018-10-16T15:28:37.479Z,98125.34
2018-10-16T15:31:06.202Z,98115.69
2018-10-16T15:33:35.131Z,98121.56
2018-10-16T15:36:03.907Z,98121.03
2018-10-16T15:38:32.741Z,98127.03
2018-10-16T15:41:01.788Z,98119.21
2018-10-16T15:43:30.694Z,98123.11
2018-10-16T15:45:59.506Z,98122.96
2018-10-16T15:48:28.310Z,98122.91
2018-10-16T15:50:57.140Z,98120.08
2018-10-16T15:53:25.884Z,98120.28
2018-10-16T15:55:54.614Z,98122.45
2018-10-16T15:58:23.503Z,98120.59
2018-10-16T16:00:52.184Z,98126.34
2018-10-16T16:03:21.106Z,98130.67
2018-10-16T16:05:49.814Z,98133.67
2018-10-16T16:08:18.572Z,98131.14
2018-10-16T16:10:47.379Z,98130.40
2018-10-16T16:13:16.132Z,98130.02
2018-10-16T16:15:44.880Z,98129.16
2018-10-16T16:18:13.797Z,98134.63
2018-10-16T16:20:42.695Z,98133.02
2018-10-16T16:23:11.554Z,98133.17
2018-10-16T16:25:40.489Z,98132.39
2018-10-16T16:28:09.468Z,98132.68
2018-10-16T16:30:38.175Z,98133.66
2018-10-16T16:33:07.180Z,98135.14
2018-10-16T16:35:35.966Z,98144.77
2018-10-16T16:38:05.048Z,98144.37
2018-10-16T16:40:33.690Z,98146.12
2018-10-16T16:43:02.535Z,98139.47
2018-10-16T16:45:31.457Z,98146.48
2018-10-16T16:48:00.235Z,98145.14
2018-10-16T16:50:29.039Z,98150.42
2018-10-16T16:52:57.914Z,98142.16
2018-10-16T16:55:26.787Z,98145.95
2018-10-16T16:57:55.593Z,98145.53
2018-10-16T17:00:24.355Z,98144.06
2018-10-16T17:02:53.191Z,98147.66
2018-10-16T17:05:22.050Z,98149.83
2018-10-16T17:07:50.987Z,98155.57
2018-10-16T17:10:19.919Z,98154.56
2018-10-16T17:12:48.783Z,98161.98
2018-10-16T17:15:17.694Z,98167.34
2018-10-16T17:17:47.315Z,98172.34
2018-10-16T17:20:16.053Z,98177.58
2018-10-16T17:22:44.924Z,98183.38
2018-10-16T17:25:14.857Z,98182.56
2018-10-16T17:27:44.327Z,98183.03
2018-10-16T17:30:15.147Z,98190.08
2018-10-16T17:32:44.476Z,98194.64
2018-10-16T17:35:13.775Z,98199.97
2018-10-16T17:37:43.189Z,98198.70
2018-10-16T17:40:13.776Z,98206.17
2018-10-16T17:42:42.748Z,98209.34
2018-10-16T17:45:13.064Z,98208.67
2018-10-16T17:47:42.321Z,98218.05
2018-10-16T17:50:13.035Z,98211.55
2018-10-16T17:52:42.130Z,98213.84
2018-10-16T17:55:11.951Z,98205.78
2018-10-16T17:57:41.226Z,98204.58
2018-10-16T18:00:12.861Z,98208.67
2018-10-16T18:02:42.215Z,98208.17
2018-10-16T18:05:11.410Z,98211.32
2018-10-16T18:07:40.422Z,98216.50
2018-10-16T18:10:09.546Z,98215.14
2018-10-16T18:12:38.511Z,98219.00
2018-10-16T18:15:09.375Z,98220.59
2018-10-16T18:17:38.454Z,98218.31
2018-10-16T18:20:09.059Z,98216.27
2018-10-16T18:22:37.815Z,98216.80
2018-10-16T18:25:07.693Z,98216.42
2018-10-16T18:27:36.470Z,98214.14
2018-10-16T18:30:05.590Z,98214.77
2018-10-16T18:32:34.351Z,98217.91
2018-10-16T18:35:03.153Z,98218.98
2018-10-16T18:37:31.922Z,98216.78
2018-10-16T18:40:00.846Z,98215.41
2018-10-16T18:42:29.554Z,98218.98
2018-10-16T18:44:58.383Z,98217.01
2018-10-16T18:47:27.336Z,98222.06
2018-10-16T18:49:56.047Z,98214.23
2018-10-16T18:52:24.921Z,98216.38
2018-10-16T18:54:53.832Z,98217.84
2018-10-16T18:57:22.642Z,98223.55
2018-10-16T18:59:51.472Z,98226.14
2018-10-16T19:02:20.270Z,98229.19
2018-10-16T19:04:49.053Z,98229.22
2018-10-16T19:07:18.034Z,98237.84
2018-10-16T19:09:46.895Z,98238.20
2018-10-16T19:12:15.695Z,98237.66
2018-10-16T19:14:44.463Z,98232.53
2018-10-16T19:17:13.529Z,98230.94
2018-10-16T19:19:42.352Z,98229.59
2018-10-16T19:22:11.201Z,98228.23
2018-10-16T19:24:40.022Z,98231.67
2018-10-16T19:27:08.934Z,98230.88
2018-10-16T19:29:37.822Z,98228.16
2018-10-16T19:32:06.830Z,98228.72
2018-10-16T19:34:35.583Z,98228.81
2018-10-16T19:37:04.419Z,98228.58
2018-10-16T19:39:33.277Z,98233.00
2018-10-16T19:42:02.078Z,98235.67
2018-10-16T19:44:31.062Z,98234.96
2018-10-16T19:46:59.987Z,98243.52
2018-10-16T19:49:28.722Z,98239.59
2018-10-16T19:51:57.555Z,98237.11
2018-10-16T19:54:26.625Z,98234.96
2018-10-16T19:56:55.497Z,98240.72
2018-10-16T19:59:24.336Z,98235.05
2018-10-16T20:01:53.171Z,98242.38
2018-10-16T20:04:22.033Z,98242.70
2018-10-16T20:06:50.907Z,98252.06
2018-10-16T20:09:19.652Z,98246.69
2018-10-16T20:11:48.471Z,98252.36
2018-10-16T20:14:17.422Z,98249.64
2018-10-16T20:16:46.051Z,98244.77
2018-10-16T20:19:14.920Z,98243.64
2018-10-16T20:21:43.848Z,98250.43
2018-10-16T20:24:12.773Z,98240.45
2018-10-16T20:26:41.709Z,98243.25
2018-10-16T20:29:10.698Z,98234.77
2018-10-16T20:31:39.498Z,98238.60
2018-10-16T20:34:08.319Z,98238.84
2018-10-16T20:36:37.127Z,98236.69
2018-10-16T20:39:10.920Z,98232.77
2018-10-16T20:41:40.094Z,98233.33
2018-10-16T20:44:08.968Z,98233.88
2018-10-16T20:46:38.078Z,98241.77
2018-10-16T20:49:07.504Z,98243.73
2018-10-16T20:51:37.081Z,98246.69
2018-10-16T20:54:06.050Z,98242.38
2018-10-16T20:56:34.859Z,98242.78
2018-10-16T20:59:03.676Z,98238.39
2018-10-16T21:01:32.455Z,98242.01
2018-10-16T21:04:01.206Z,98242.30
2018-10-16T21:06:30.242Z,98248.13
2018-10-16T21:08:58.911Z,98254.43
2018-10-16T21:11:27.689Z,98250.59
2018-10-16T21:13:56.528Z,98251.12
2018-10-16T21:16:25.391Z,98247.42
2018-10-16T21:18:54.231Z,98246.01
2018-10-16T21:21:23.183Z,98249.19
2018-10-16T21:23:51.935Z,98253.27
2018-10-16T21:26:20.749Z,98243.53
2018-10-16T21:28:49.561Z,98246.05
2018-10-16T21:31:18.431Z,98246.97
2018-10-16T21:33:47.143Z,98244.26
2018-10-16T21:36:15.906Z,98242.34
2018-10-16T21:38:44.779Z,98248.23
2018-10-16T21:41:13.636Z,98240.98
2018-10-16T21:43:42.347Z,98242.45
2018-10-16T21:46:11.223Z,98242.45
2018-10-16T21:48:39.935Z,98241.66
2018-10-16T21:51:08.830Z,98247.13
2018-10-16T21:53:37.662Z,98237.39
2018-10-16T21:56:06.466Z,98239.43
2018-10-16T21:58:35.182Z,98241.97
2018-10-16T22:01:09.641Z,98241.66
2018-10-16T22:03:38.703Z,98239.89
2018-10-16T22:06:07.645Z,98241.84
2018-10-16T22:08:36.653Z,98243.08
2018-10-16T22:11:05.999Z,98243.83
2018-10-16T22:13:34.736Z,98243.76
2018-10-16T22:16:03.480Z,98244.07
2018-10-16T22:18:32.259Z,98240.55
2018-10-16T22:21:01.024Z,98243.47
2018-10-16T22:23:29.863Z,98246.54
2018-10-16T22:25:58.706Z,98245.73
2018-10-16T22:28:27.441Z,98245.80
2018-10-16T22:30:56.212Z,98251.53
2018-10-16T22:33:24.987Z,98257.13
2018-10-16T22:35:53.922Z,98255.16
2018-10-16T22:38:22.687Z,98253.91
2018-10-16T22:40:51.551Z,98257.28
2018-10-16T22:43:20.511Z,98254.27
2018-10-16T22:45:49.324Z,98250.55
2018-10-16T22:48:18.018Z,98247.84
2018-10-16T22:50:46.975Z,98253.46
2018-10-16T22:53:15.792Z,98258.98
2018-10-16T22:55:44.605Z,98259.59
2018-10-16T22:58:13.251Z,98249.00
2018-10-16T23:00:42.019Z,98249.09
2018-10-16T23:03:10.831Z,98248.45
2018-10-16T23:05:39.786Z,98245.13
2018-10-16T23:08:08.553Z,98245.44
2018-10-16T23:10:37.564Z,98248.45
2018-10-16T23:13:06.912Z,98250.27
2018-10-16T23:15:35.882Z,98245.90
2018-10-16T23:18:05.241Z,98249.65
2018-10-16T23:20:34.622Z,98244.89
2018-10-16T23:23:03.424Z,98237.39
2018-10-16T23:25:32.205Z,98240.01
2018-10-16T23:28:00.966Z,98251.14
2018-10-16T23:30:29.832Z,98255.87
2018-10-16T23:32:58.651Z,98253.58
2018-10-16T23:35:27.351Z,98244.36
2018-10-16T23:37:56.137Z,98244.14
2018-10-16T23:40:24.942Z,98248.81
2018-10-16T23:42:53.806Z,98249.83
2018-10-16T23:45:22.581Z,98241.64
2018-10-16T23:47:51.421Z,98240.92
2018-10-16T23:50:20.255Z,98237.94
2018-10-16T23:52:49.062Z,98243.10
2018-10-16T23:55:18.007Z,98238.00
2018-10-16T23:57:46.753Z,98242.20
